sensor_id;sensor_type;location;lat;lon;timestamp;pressure;altitude;pressure_sealevel;temperature
71463;BMP180;59266;52.608;13.260;2024-02-04T00:01:18;101306.00;;;7.50
71463;BMP180;59266;52.608;13.260;2024-02-04T00:03:45;101300.00;;;7.60
71463;BMP180;59266;52.608;13.260;2024-02-04T00:06:11;101314.00;;;7.60
71463;BMP180;59266;52.608;13.260;2024-02-04T00:08:39;101326.00;;;7.60
71463;BMP180;59266;52.608;13.260;2024-02-04T00:11:06;101322.00;;;7.60
71463;BMP180;59266;52.608;13.260;2024-02-04T00:13:34;101318.00;;;7.60
71463;BMP180;59266;52.608;13.260;2024-02-04T00:16:01;101318.00;;;7.60
71463;BMP180;59266;52.608;13.260;2024-02-04T00:18:28;101322.00;;;7.60
71463;BMP180;59266;52.608;13.260;2024-02-04T00:20:55;101328.00;;;7.60
71463;BMP180;59266;52.608;13.260;2024-02-04T00:23:21;101323.00;;;7.60
71463;BMP180;59266;52.608;13.260;2024-02-04T00:25:48;101315.00;;;7.60
71463;BMP180;59266;52.608;13.260;2024-02-04T00:28:14;101328.00;;;7.60
71463;BMP180;59266;52.608;13.260;2024-02-04T00:30:41;101331.00;;;7.60
71463;BMP180;59266;52.608;13.260;2024-02-04T00:33:08;101327.00;;;7.50
71463;BMP180;59266;52.608;13.260;2024-02-04T00:35:35;101321.00;;;7.40
71463;BMP180;59266;52.608;13.260;2024-02-04T00:38:04;101304.00;;;7.30
71463;BMP180;59266;52.608;13.260;2024-02-04T00:40:31;101290.00;;;7.20
71463;BMP180;59266;52.608;13.260;2024-02-04T00:43:02;101297.00;;;7.10
71463;BMP180;59266;52.608;13.260;2024-02-04T00:45:29;101286.00;;;7.10
71463;BMP180;59266;52.608;13.260;2024-02-04T00:47:56;101288.00;;;7.00
71463;BMP180;59266;52.608;13.260;2024-02-04T00:50:22;101289.00;;;7.00
71463;BMP180;59266;52.608;13.260;2024-02-04T00:52:49;101298.00;;;7.00
71463;BMP180;59266;52.608;13.260;2024-02-04T00:55:16;101313.00;;;6.90
71463;BMP180;59266;52.608;13.260;2024-02-04T00:57:42;101310.00;;;6.80
71463;BMP180;59266;52.608;13.260;2024-02-04T01:00:09;101290.00;;;6.80
71463;BMP180;59266;52.608;13.260;2024-02-04T01:02:36;101283.00;;;6.70
71463;BMP180;59266;52.608;13.260;2024-02-04T01:05:03;101289.00;;;6.60
71463;BMP180;59266;52.608;13.260;2024-02-04T01:07:30;101295.00;;;6.60
71463;BMP180;59266;52.608;13.260;2024-02-04T01:09:56;101302.00;;;6.50
71463;BMP180;59266;52.608;13.260;2024-02-04T01:12:23;101289.00;;;6.60
71463;BMP180;59266;52.608;13.260;2024-02-04T01:14:49;101282.00;;;6.50
71463;BMP180;59266;52.608;13.260;2024-02-04T01:17:16;101285.00;;;6.60
71463;BMP180;59266;52.608;13.260;2024-02-04T01:19:48;101292.00;;;6.60
71463;BMP180;59266;52.608;13.260;2024-02-04T01:22:15;101309.00;;;6.70
71463;BMP180;59266;52.608;13.260;2024-02-04T01:24:41;101303.00;;;6.70
71463;BMP180;59266;52.608;13.260;2024-02-04T01:27:08;101300.00;;;6.60
71463;BMP180;59266;52.608;13.260;2024-02-04T01:29:35;101306.00;;;6.60
71463;BMP180;59266;52.608;13.260;2024-02-04T01:32:01;101302.00;;;6.50
71463;BMP180;59266;52.608;13.260;2024-02-04T01:34:28;101312.00;;;6.40
71463;BMP180;59266;52.608;13.260;2024-02-04T01:36:54;101305.00;;;6.40
71463;BMP180;59266;52.608;13.260;2024-02-04T01:39:22;101298.00;;;6.30
71463;BMP180;59266;52.608;13.260;2024-02-04T01:41:50;101304.00;;;6.30
71463;BMP180;59266;52.608;13.260;2024-02-04T01:44:17;101297.00;;;6.20
71463;BMP180;59266;52.608;13.260;2024-02-04T01:46:45;101298.00;;;6.10
71463;BMP180;59266;52.608;13.260;2024-02-04T01:49:11;101294.00;;;6.10
71463;BMP180;59266;52.608;13.260;2024-02-04T01:51:38;101295.00;;;6.00
71463;BMP180;59266;52.608;13.260;2024-02-04T01:54:05;101292.00;;;6.00
71463;BMP180;59266;52.608;13.260;2024-02-04T01:56:33;101289.00;;;6.00
71463;BMP180;59266;52.608;13.260;2024-02-04T01:59:07;101290.00;;;6.00
71463;BMP180;59266;52.608;13.260;2024-02-04T02:01:34;101297.00;;;6.00
71463;BMP180;59266;52.608;13.260;2024-02-04T02:04:01;101299.00;;;5.90
71463;BMP180;59266;52.608;13.260;2024-02-04T02:06:29;101299.00;;;5.90
71463;BMP180;59266;52.608;13.260;2024-02-04T02:08:58;101296.00;;;6.00
71463;BMP180;59266;52.608;13.260;2024-02-04T02:11:32;101279.00;;;5.90
71463;BMP180;59266;52.608;13.260;2024-02-04T02:14:05;101266.00;;;5.90
71463;BMP180;59266;52.608;13.260;2024-02-04T02:16:34;101254.00;;;5.90
71463;BMP180;59266;52.608;13.260;2024-02-04T02:19:15;101251.00;;;5.90
71463;BMP180;59266;52.608;13.260;2024-02-04T02:24:38;101265.00;;;5.90
71463;BMP180;59266;52.608;13.260;2024-02-04T02:27:06;101273.00;;;5.90
71463;BMP180;59266;52.608;13.260;2024-02-04T02:29:32;101285.00;;;5.80
71463;BMP180;59266;52.608;13.260;2024-02-04T02:31:59;101290.00;;;5.90
71463;BMP180;59266;52.608;13.260;2024-02-04T02:34:27;101274.00;;;5.90
71463;BMP180;59266;52.608;13.260;2024-02-04T02:37:26;101272.00;;;5.90
71463;BMP180;59266;52.608;13.260;2024-02-04T02:40:06;101278.00;;;5.90
71463;BMP180;59266;52.608;13.260;2024-02-04T02:42:35;101282.00;;;5.90
71463;BMP180;59266;52.608;13.260;2024-02-04T02:45:06;101274.00;;;6.00
71463;BMP180;59266;52.608;13.260;2024-02-04T02:47:33;101269.00;;;6.10
71463;BMP180;59266;52.608;13.260;2024-02-04T02:50:01;101268.00;;;6.20
71463;BMP180;59266;52.608;13.260;2024-02-04T02:52:31;101269.00;;;6.30
71463;BMP180;59266;52.608;13.260;2024-02-04T02:54:58;101280.00;;;6.30
71463;BMP180;59266;52.608;13.260;2024-02-04T02:57:24;101268.00;;;6.40
71463;BMP180;59266;52.608;13.260;2024-02-04T02:59:54;101260.00;;;6.50
71463;BMP180;59266;52.608;13.260;2024-02-04T03:02:21;101267.00;;;6.50
71463;BMP180;59266;52.608;13.260;2024-02-04T03:04:47;101269.00;;;6.50
71463;BMP180;59266;52.608;13.260;2024-02-04T03:07:14;101260.00;;;6.60
71463;BMP180;59266;52.608;13.260;2024-02-04T03:09:40;101264.00;;;6.60
71463;BMP180;59266;52.608;13.260;2024-02-04T03:12:07;101263.00;;;6.70
71463;BMP180;59266;52.608;13.260;2024-02-04T03:14:34;101252.00;;;6.70
71463;BMP180;59266;52.608;13.260;2024-02-04T03:17:00;101257.00;;;6.60
71463;BMP180;59266;52.608;13.260;2024-02-04T03:19:27;101257.00;;;6.70
71463;BMP180;59266;52.608;13.260;2024-02-04T03:21:54;101268.00;;;6.70
71463;BMP180;59266;52.608;13.260;2024-02-04T03:24:21;101264.00;;;6.70
71463;BMP180;59266;52.608;13.260;2024-02-04T03:26:47;101269.00;;;6.70
71463;BMP180;59266;52.608;13.260;2024-02-04T03:29:14;101268.00;;;6.70
71463;BMP180;59266;52.608;13.260;2024-02-04T03:31:41;101246.00;;;6.80
71463;BMP180;59266;52.608;13.260;2024-02-04T03:34:07;101249.00;;;6.80
71463;BMP180;59266;52.608;13.260;2024-02-04T03:36:37;101248.00;;;6.80
71463;BMP180;59266;52.608;13.260;2024-02-04T03:39:04;101237.00;;;6.90
71463;BMP180;59266;52.608;13.260;2024-02-04T03:41:32;101231.00;;;6.90
71463;BMP180;59266;52.608;13.260;2024-02-04T03:43:58;101237.00;;;6.90
71463;BMP180;59266;52.608;13.260;2024-02-04T03:46:25;101227.00;;;6.90
71463;BMP180;59266;52.608;13.260;2024-02-04T03:48:52;101228.00;;;6.90
71463;BMP180;59266;52.608;13.260;2024-02-04T03:51:19;101232.00;;;6.80
71463;BMP180;59266;52.608;13.260;2024-02-04T03:53:47;101230.00;;;6.80
71463;BMP180;59266;52.608;13.260;2024-02-04T03:56:13;101232.00;;;6.80
71463;BMP180;59266;52.608;13.260;2024-02-04T03:58:40;101229.00;;;6.70
71463;BMP180;59266;52.608;13.260;2024-02-04T04:01:10;101227.00;;;6.70
71463;BMP180;59266;52.608;13.260;2024-02-04T04:03:41;101225.00;;;6.70
71463;BMP180;59266;52.608;13.260;2024-02-04T04:06:09;101213.00;;;6.70
71463;BMP180;59266;52.608;13.260;2024-02-04T04:08:37;101221.00;;;6.60
71463;BMP180;59266;52.608;13.260;2024-02-04T04:11:03;101219.00;;;6.50
71463;BMP180;59266;52.608;13.260;2024-02-04T04:13:30;101212.00;;;6.50
71463;BMP180;59266;52.608;13.260;2024-02-04T04:16:02;101213.00;;;6.50
71463;BMP180;59266;52.608;13.260;2024-02-04T04:18:29;101207.00;;;6.50
71463;BMP180;59266;52.608;13.260;2024-02-04T04:20:56;101201.00;;;6.40
71463;BMP180;59266;52.608;13.260;2024-02-04T04:23:23;101213.00;;;6.40
71463;BMP180;59266;52.608;13.260;2024-02-04T04:25:49;101208.00;;;6.40
71463;BMP180;59266;52.608;13.260;2024-02-04T04:28:16;101205.00;;;6.40
71463;BMP180;59266;52.608;13.260;2024-02-04T04:30:42;101206.00;;;6.40
71463;BMP180;59266;52.608;13.260;2024-02-04T04:33:09;101203.00;;;6.40
71463;BMP180;59266;52.608;13.260;2024-02-04T04:35:36;101200.00;;;6.40
71463;BMP180;59266;52.608;13.260;2024-02-04T04:38:05;101199.00;;;6.40
71463;BMP180;59266;52.608;13.260;2024-02-04T04:40:31;101203.00;;;6.50
71463;BMP180;59266;52.608;13.260;2024-02-04T04:42:58;101200.00;;;6.50
71463;BMP180;59266;52.608;13.260;2024-02-04T04:45:25;101194.00;;;6.50
71463;BMP180;59266;52.608;13.260;2024-02-04T04:47:52;101200.00;;;6.50
71463;BMP180;59266;52.608;13.260;2024-02-04T04:50:18;101193.00;;;6.60
71463;BMP180;59266;52.608;13.260;2024-02-04T04:52:45;101186.00;;;6.60
71463;BMP180;59266;52.608;13.260;2024-02-04T04:55:12;101184.00;;;6.50
71463;BMP180;59266;52.608;13.260;2024-02-04T04:57:40;101183.00;;;6.50
71463;BMP180;59266;52.608;13.260;2024-02-04T05:00:08;101180.00;;;6.40
71463;BMP180;59266;52.608;13.260;2024-02-04T05:02:36;101172.00;;;6.40
71463;BMP180;59266;52.608;13.260;2024-02-04T05:05:03;101181.00;;;6.30
71463;BMP180;59266;52.608;13.260;2024-02-04T05:07:30;101167.00;;;6.30
71463;BMP180;59266;52.608;13.260;2024-02-04T05:09:57;101159.00;;;6.30
71463;BMP180;59266;52.608;13.260;2024-02-04T05:12:24;101171.00;;;6.20
71463;BMP180;59266;52.608;13.260;2024-02-04T05:14:51;101165.00;;;6.30
71463;BMP180;59266;52.608;13.260;2024-02-04T05:17:18;101158.00;;;6.30
71463;BMP180;59266;52.608;13.260;2024-02-04T05:19:45;101164.00;;;6.30
71463;BMP180;59266;52.608;13.260;2024-02-04T05:22:12;101160.00;;;6.30
71463;BMP180;59266;52.608;13.260;2024-02-04T05:24:39;101158.00;;;6.30
71463;BMP180;59266;52.608;13.260;2024-02-04T05:27:05;101147.00;;;6.30
71463;BMP180;59266;52.608;13.260;2024-02-04T05:29:32;101143.00;;;6.30
71463;BMP180;59266;52.608;13.260;2024-02-04T05:31:59;101135.00;;;6.30
71463;BMP180;59266;52.608;13.260;2024-02-04T05:34:25;101136.00;;;6.20
71463;BMP180;59266;52.608;13.260;2024-02-04T05:36:52;101130.00;;;6.20
71463;BMP180;59266;52.608;13.260;2024-02-04T05:39:19;101138.00;;;6.20
71463;BMP180;59266;52.608;13.260;2024-02-04T05:41:46;101135.00;;;6.10
71463;BMP180;59266;52.608;13.260;2024-02-04T05:44:15;101139.00;;;6.10
71463;BMP180;59266;52.608;13.260;2024-02-04T05:46:42;101141.00;;;6.00
71463;BMP180;59266;52.608;13.260;2024-02-04T05:49:08;101139.00;;;6.00
71463;BMP180;59266;52.608;13.260;2024-02-04T05:51:39;101135.00;;;6.00
71463;BMP180;59266;52.608;13.260;2024-02-04T05:54:07;101132.00;;;5.90
71463;BMP180;59266;52.608;13.260;2024-02-04T05:56:36;101153.00;;;5.90
71463;BMP180;59266;52.608;13.260;2024-02-04T05:59:03;101145.00;;;5.90
71463;BMP180;59266;52.608;13.260;2024-02-04T06:01:29;101142.00;;;6.00
71463;BMP180;59266;52.608;13.260;2024-02-04T06:03:56;101156.00;;;6.00
71463;BMP180;59266;52.608;13.260;2024-02-04T06:06:24;101164.00;;;5.90
71463;BMP180;59266;52.608;13.260;2024-02-04T06:08:51;101161.00;;;6.00
71463;BMP180;59266;52.608;13.260;2024-02-04T06:11:18;101165.00;;;6.00
71463;BMP180;59266;52.608;13.260;2024-02-04T06:13:44;101160.00;;;6.10
71463;BMP180;59266;52.608;13.260;2024-02-04T06:16:11;101151.00;;;6.20
71463;BMP180;59266;52.608;13.260;2024-02-04T06:18:39;101150.00;;;6.20
71463;BMP180;59266;52.608;13.260;2024-02-04T06:21:07;101155.00;;;6.20
71463;BMP180;59266;52.608;13.260;2024-02-04T06:23:34;101143.00;;;6.30
71463;BMP180;59266;52.608;13.260;2024-02-04T06:26:00;101141.00;;;6.30
71463;BMP180;59266;52.608;13.260;2024-02-04T06:28:27;101146.00;;;6.30
71463;BMP180;59266;52.608;13.260;2024-02-04T06:30:55;101146.00;;;6.30
71463;BMP180;59266;52.608;13.260;2024-02-04T06:33:22;101146.00;;;6.30
71463;BMP180;59266;52.608;13.260;2024-02-04T06:35:50;101148.00;;;6.20
71463;BMP180;59266;52.608;13.260;2024-02-04T06:38:17;101148.00;;;6.10
71463;BMP180;59266;52.608;13.260;2024-02-04T06:40:44;101157.00;;;6.10
71463;BMP180;59266;52.608;13.260;2024-02-04T06:43:10;101169.00;;;6.10
71463;BMP180;59266;52.608;13.260;2024-02-04T06:45:37;101164.00;;;6.10
71463;BMP180;59266;52.608;13.260;2024-02-04T06:48:04;101161.00;;;6.10
71463;BMP180;59266;52.608;13.260;2024-02-04T06:50:31;101163.00;;;6.10
71463;BMP180;59266;52.608;13.260;2024-02-04T06:52:58;101161.00;;;6.10
71463;BMP180;59266;52.608;13.260;2024-02-04T06:55:24;101164.00;;;6.00
71463;BMP180;59266;52.608;13.260;2024-02-04T06:57:51;101163.00;;;6.00
71463;BMP180;59266;52.608;13.260;2024-02-04T07:00:18;101160.00;;;6.10
71463;BMP180;59266;52.608;13.260;2024-02-04T07:02:44;101142.00;;;6.10
71463;BMP180;59266;52.608;13.260;2024-02-04T07:05:11;101144.00;;;6.20
71463;BMP180;59266;52.608;13.260;2024-02-04T07:07:38;101148.00;;;6.30
71463;BMP180;59266;52.608;13.260;2024-02-04T07:10:05;101150.00;;;6.30
71463;BMP180;59266;52.608;13.260;2024-02-04T07:12:32;101149.00;;;6.30
71463;BMP180;59266;52.608;13.260;2024-02-04T07:14:59;101141.00;;;6.30
71463;BMP180;59266;52.608;13.260;2024-02-04T07:17:25;101138.00;;;6.40
71463;BMP180;59266;52.608;13.260;2024-02-04T07:19:52;101116.00;;;6.30
71463;BMP180;59266;52.608;13.260;2024-02-04T07:22:21;101125.00;;;6.40
71463;BMP180;59266;52.608;13.260;2024-02-04T07:24:47;101130.00;;;6.40
71463;BMP180;59266;52.608;13.260;2024-02-04T07:27:16;101124.00;;;6.40
71463;BMP180;59266;52.608;13.260;2024-02-04T07:29:43;101119.00;;;6.50
71463;BMP180;59266;52.608;13.260;2024-02-04T07:32:09;101131.00;;;6.50
71463;BMP180;59266;52.608;13.260;2024-02-04T07:34:36;101128.00;;;6.60
71463;BMP180;59266;52.608;13.260;2024-02-04T07:37:03;101118.00;;;6.60
71463;BMP180;59266;52.608;13.260;2024-02-04T07:39:30;101113.00;;;6.70
71463;BMP180;59266;52.608;13.260;2024-02-04T07:41:58;101102.00;;;6.70
71463;BMP180;59266;52.608;13.260;2024-02-04T07:44:27;101100.00;;;6.70
71463;BMP180;59266;52.608;13.260;2024-02-04T07:46:54;101085.00;;;6.70
71463;BMP180;59266;52.608;13.260;2024-02-04T07:49:20;101090.00;;;6.70
71463;BMP180;59266;52.608;13.260;2024-02-04T07:51:47;101083.00;;;6.80
71463;BMP180;59266;52.608;13.260;2024-02-04T07:54:14;101070.00;;;6.90
71463;BMP180;59266;52.608;13.260;2024-02-04T07:56:41;101066.00;;;6.90
71463;BMP180;59266;52.608;13.260;2024-02-04T07:59:07;101081.00;;;7.00
71463;BMP180;59266;52.608;13.260;2024-02-04T08:01:34;101077.00;;;7.10
71463;BMP180;59266;52.608;13.260;2024-02-04T08:04:01;101081.00;;;7.20
71463;BMP180;59266;52.608;13.260;2024-02-04T08:06:29;101075.00;;;7.30
71463;BMP180;59266;52.608;13.260;2024-02-04T08:08:56;101068.00;;;7.40
71463;BMP180;59266;52.608;13.260;2024-02-04T08:11:22;101073.00;;;7.60
71463;BMP180;59266;52.608;13.260;2024-02-04T08:13:49;101059.00;;;7.70
71463;BMP180;59266;52.608;13.260;2024-02-04T08:16:16;101073.00;;;7.80
71463;BMP180;59266;52.608;13.260;2024-02-04T08:18:42;101069.00;;;7.80
71463;BMP180;59266;52.608;13.260;2024-02-04T08:21:09;101071.00;;;7.70
71463;BMP180;59266;52.608;13.260;2024-02-04T08:23:36;101071.00;;;7.80
71463;BMP180;59266;52.608;13.260;2024-02-04T08:26:02;101077.00;;;7.80
71463;BMP180;59266;52.608;13.260;2024-02-04T08:28:30;101062.00;;;7.90
71463;BMP180;59266;52.608;13.260;2024-02-04T08:30:57;101053.00;;;7.80
71463;BMP180;59266;52.608;13.260;2024-02-04T08:33:23;101043.00;;;7.80
71463;BMP180;59266;52.608;13.260;2024-02-04T08:35:50;101051.00;;;7.80
71463;BMP180;59266;52.608;13.260;2024-02-04T08:38:16;101049.00;;;7.70
71463;BMP180;59266;52.608;13.260;2024-02-04T08:40:43;101047.00;;;7.80
71463;BMP180;59266;52.608;13.260;2024-02-04T08:43:13;101043.00;;;7.80
71463;BMP180;59266;52.608;13.260;2024-02-04T08:45:40;101045.00;;;7.80
71463;BMP180;59266;52.608;13.260;2024-02-04T08:48:07;101046.00;;;7.80
71463;BMP180;59266;52.608;13.260;2024-02-04T08:50:33;101033.00;;;7.90
71463;BMP180;59266;52.608;13.260;2024-02-04T08:53:00;101033.00;;;7.80
71463;BMP180;59266;52.608;13.260;2024-02-04T08:55:29;101036.00;;;7.80
71463;BMP180;59266;52.608;13.260;2024-02-04T08:57:55;101037.00;;;7.80
71463;BMP180;59266;52.608;13.260;2024-02-04T09:00:22;101028.00;;;7.90
71463;BMP180;59266;52.608;13.260;2024-02-04T09:02:50;101036.00;;;7.90
71463;BMP180;59266;52.608;13.260;2024-02-04T09:05:17;101028.00;;;8.00
71463;BMP180;59266;52.608;13.260;2024-02-04T09:07:45;101038.00;;;7.90
71463;BMP180;59266;52.608;13.260;2024-02-04T09:10:12;101030.00;;;7.90
71463;BMP180;59266;52.608;13.260;2024-02-04T09:12:39;101034.00;;;8.00
71463;BMP180;59266;52.608;13.260;2024-02-04T09:15:06;101033.00;;;8.00
71463;BMP180;59266;52.608;13.260;2024-02-04T09:17:33;101033.00;;;7.90
71463;BMP180;59266;52.608;13.260;2024-02-04T09:20:01;101037.00;;;8.00
71463;BMP180;59266;52.608;13.260;2024-02-04T09:22:29;101026.00;;;8.00
71463;BMP180;59266;52.608;13.260;2024-02-04T09:24:59;101032.00;;;8.10
71463;BMP180;59266;52.608;13.260;2024-02-04T09:27:26;101038.00;;;8.40
71463;BMP180;59266;52.608;13.260;2024-02-04T09:29:52;101039.00;;;8.30
71463;BMP180;59266;52.608;13.260;2024-02-04T09:32:21;101022.00;;;8.30
71463;BMP180;59266;52.608;13.260;2024-02-04T09:34:49;101037.00;;;8.50
71463;BMP180;59266;52.608;13.260;2024-02-04T09:37:16;101027.00;;;8.40
71463;BMP180;59266;52.608;13.260;2024-02-04T09:39:43;101029.00;;;8.60
71463;BMP180;59266;52.608;13.260;2024-02-04T09:42:11;101033.00;;;8.60
71463;BMP180;59266;52.608;13.260;2024-02-04T09:44:42;101016.00;;;8.50
71463;BMP180;59266;52.608;13.260;2024-02-04T09:47:11;101018.00;;;8.70
71463;BMP180;59266;52.608;13.260;2024-02-04T09:49:39;101024.00;;;8.80
71463;BMP180;59266;52.608;13.260;2024-02-04T09:52:09;101018.00;;;8.90
71463;BMP180;59266;52.608;13.260;2024-02-04T09:54:44;101024.00;;;8.70
71463;BMP180;59266;52.608;13.260;2024-02-04T09:57:14;101016.00;;;8.70
71463;BMP180;59266;52.608;13.260;2024-02-04T09:59:41;101006.00;;;8.70
71463;BMP180;59266;52.608;13.260;2024-02-04T10:02:10;101015.00;;;8.70
71463;BMP180;59266;52.608;13.260;2024-02-04T10:04:36;101009.00;;;8.90
71463;BMP180;59266;52.608;13.260;2024-02-04T10:07:04;101019.00;;;8.80
71463;BMP180;59266;52.608;13.260;2024-02-04T10:09:31;101011.00;;;8.70
71463;BMP180;59266;52.608;13.260;2024-02-04T10:11:58;101003.00;;;8.80
71463;BMP180;59266;52.608;13.260;2024-02-04T10:14:25;101005.00;;;9.00
71463;BMP180;59266;52.608;13.260;2024-02-04T10:16:52;101014.00;;;9.10
71463;BMP180;59266;52.608;13.260;2024-02-04T10:19:19;100990.00;;;9.20
71463;BMP180;59266;52.608;13.260;2024-02-04T10:21:46;100995.00;;;9.30
71463;BMP180;59266;52.608;13.260;2024-02-04T10:24:13;100986.00;;;9.30
71463;BMP180;59266;52.608;13.260;2024-02-04T10:26:39;100995.00;;;9.20
71463;BMP180;59266;52.608;13.260;2024-02-04T10:29:08;100992.00;;;9.40
71463;BMP180;59266;52.608;13.260;2024-02-04T10:31:34;100992.00;;;9.40
71463;BMP180;59266;52.608;13.260;2024-02-04T10:34:01;100984.00;;;9.30
71463;BMP180;59266;52.608;13.260;2024-02-04T10:36:30;100975.00;;;9.20
71463;BMP180;59266;52.608;13.260;2024-02-04T10:38:57;100972.00;;;9.30
71463;BMP180;59266;52.608;13.260;2024-02-04T10:41:24;100971.00;;;9.10
71463;BMP180;59266;52.608;13.260;2024-02-04T10:43:52;100976.00;;;9.20
71463;BMP180;59266;52.608;13.260;2024-02-04T10:46:22;100978.00;;;9.30
71463;BMP180;59266;52.608;13.260;2024-02-04T10:48:55;100965.00;;;9.20
71463;BMP180;59266;52.608;13.260;2024-02-04T10:51:25;100974.00;;;9.00
71463;BMP180;59266;52.608;13.260;2024-02-04T10:53:55;100973.00;;;9.10
71463;BMP180;59266;52.608;13.260;2024-02-04T10:56:30;100965.00;;;9.10
71463;BMP180;59266;52.608;13.260;2024-02-04T10:58:58;100966.00;;;9.30
71463;BMP180;59266;52.608;13.260;2024-02-04T11:01:27;100972.00;;;9.10
71463;BMP180;59266;52.608;13.260;2024-02-04T11:03:54;100957.00;;;9.00
71463;BMP180;59266;52.608;13.260;2024-02-04T11:06:22;100962.00;;;9.00
71463;BMP180;59266;52.608;13.260;2024-02-04T11:08:51;100978.00;;;9.00
71463;BMP180;59266;52.608;13.260;2024-02-04T11:11:22;100962.00;;;9.10
71463;BMP180;59266;52.608;13.260;2024-02-04T11:13:53;100965.00;;;9.10
71463;BMP180;59266;52.608;13.260;2024-02-04T11:19:15;100968.00;;;9.10
71463;BMP180;59266;52.608;13.260;2024-02-04T11:27:52;100953.00;;;9.10
71463;BMP180;59266;52.608;13.260;2024-02-04T11:30:18;100951.00;;;9.10
71463;BMP180;59266;52.608;13.260;2024-02-04T11:32:47;100946.00;;;9.00
71463;BMP180;59266;52.608;13.260;2024-02-04T11:35:14;100935.00;;;8.90
71463;BMP180;59266;52.608;13.260;2024-02-04T11:37:41;100938.00;;;8.90
71463;BMP180;59266;52.608;13.260;2024-02-04T11:40:14;100919.00;;;9.00
71463;BMP180;59266;52.608;13.260;2024-02-04T11:42:42;100901.00;;;8.90
71463;BMP180;59266;52.608;13.260;2024-02-04T11:45:11;100884.00;;;8.90
71463;BMP180;59266;52.608;13.260;2024-02-04T11:47:38;100884.00;;;8.90
71463;BMP180;59266;52.608;13.260;2024-02-04T11:50:08;100887.00;;;9.10
71463;BMP180;59266;52.608;13.260;2024-02-04T11:52:37;100891.00;;;9.20
71463;BMP180;59266;52.608;13.260;2024-02-04T11:55:05;100890.00;;;9.20
71463;BMP180;59266;52.608;13.260;2024-02-04T11:57:33;100885.00;;;9.30
71463;BMP180;59266;52.608;13.260;2024-02-04T12:00:04;100889.00;;;9.40
71463;BMP180;59266;52.608;13.260;2024-02-04T12:02:33;100888.00;;;9.20
71463;BMP180;59266;52.608;13.260;2024-02-04T12:05:00;100897.00;;;9.20
71463;BMP180;59266;52.608;13.260;2024-02-04T12:07:27;100913.00;;;9.00
71463;BMP180;59266;52.608;13.260;2024-02-04T12:09:56;100901.00;;;9.00
71463;BMP180;59266;52.608;13.260;2024-02-04T12:12:23;100895.00;;;9.00
71463;BMP180;59266;52.608;13.260;2024-02-04T12:14:52;100894.00;;;8.80
71463;BMP180;59266;52.608;13.260;2024-02-04T12:17:19;100910.00;;;8.80
71463;BMP180;59266;52.608;13.260;2024-02-04T12:19:46;100919.00;;;8.80
71463;BMP180;59266;52.608;13.260;2024-02-04T12:22:14;100908.00;;;8.80
71463;BMP180;59266;52.608;13.260;2024-02-04T12:24:43;100921.00;;;8.70
71463;BMP180;59266;52.608;13.260;2024-02-04T12:27:10;100905.00;;;8.70
71463;BMP180;59266;52.608;13.260;2024-02-04T12:29:37;100908.00;;;8.70
71463;BMP180;59266;52.608;13.260;2024-02-04T12:32:04;100884.00;;;8.70
71463;BMP180;59266;52.608;13.260;2024-02-04T12:34:31;100888.00;;;8.70
71463;BMP180;59266;52.608;13.260;2024-02-04T12:37:01;100905.00;;;8.70
71463;BMP180;59266;52.608;13.260;2024-02-04T12:39:28;100912.00;;;8.70
71463;BMP180;59266;52.608;13.260;2024-02-04T12:41:55;100910.00;;;8.80
71463;BMP180;59266;52.608;13.260;2024-02-04T12:44:22;100899.00;;;8.80
71463;BMP180;59266;52.608;13.260;2024-02-04T12:46:52;100895.00;;;8.80
71463;BMP180;59266;52.608;13.260;2024-02-04T12:49:20;100895.00;;;8.70
71463;BMP180;59266;52.608;13.260;2024-02-04T12:51:50;100902.00;;;8.80
71463;BMP180;59266;52.608;13.260;2024-02-04T12:54:22;100896.00;;;8.70
71463;BMP180;59266;52.608;13.260;2024-02-04T12:56:51;100896.00;;;8.80
71463;BMP180;59266;52.608;13.260;2024-02-04T12:59:31;100892.00;;;8.70
71463;BMP180;59266;52.608;13.260;2024-02-04T13:02:00;100909.00;;;8.70
71463;BMP180;59266;52.608;13.260;2024-02-04T13:04:33;100899.00;;;8.90
71463;BMP180;59266;52.608;13.260;2024-02-04T13:07:00;100898.00;;;8.90
71463;BMP180;59266;52.608;13.260;2024-02-04T13:09:27;100913.00;;;8.80
71463;BMP180;59266;52.608;13.260;2024-02-04T13:12:02;100905.00;;;8.80
71463;BMP180;59266;52.608;13.260;2024-02-04T13:14:30;100900.00;;;8.70
71463;BMP180;59266;52.608;13.260;2024-02-04T13:16:57;100903.00;;;8.80
71463;BMP180;59266;52.608;13.260;2024-02-04T13:19:24;100901.00;;;8.70
71463;BMP180;59266;52.608;13.260;2024-02-04T13:22:02;100904.00;;;8.70
71463;BMP180;59266;52.608;13.260;2024-02-04T13:24:32;100907.00;;;8.60
71463;BMP180;59266;52.608;13.260;2024-02-04T13:26:59;100910.00;;;8.60
71463;BMP180;59266;52.608;13.260;2024-02-04T13:29:27;100904.00;;;8.70
71463;BMP180;59266;52.608;13.260;2024-02-04T13:32:02;100901.00;;;8.60
71463;BMP180;59266;52.608;13.260;2024-02-04T13:34:29;100905.00;;;8.70
71463;BMP180;59266;52.608;13.260;2024-02-04T13:36:57;100903.00;;;8.60
71463;BMP180;59266;52.608;13.260;2024-02-04T13:39:24;100900.00;;;8.60
71463;BMP180;59266;52.608;13.260;2024-02-04T13:41:53;100903.00;;;8.60
71463;BMP180;59266;52.608;13.260;2024-02-04T13:44:22;100891.00;;;8.60
71463;BMP180;59266;52.608;13.260;2024-02-04T13:46:51;100890.00;;;8.60
71463;BMP180;59266;52.608;13.260;2024-02-04T13:49:18;100891.00;;;8.60
71463;BMP180;59266;52.608;13.260;2024-02-04T13:51:45;100897.00;;;8.50
71463;BMP180;59266;52.608;13.260;2024-02-04T13:54:12;100899.00;;;8.60
71463;BMP180;59266;52.608;13.260;2024-02-04T13:56:45;100889.00;;;8.60
71463;BMP180;59266;52.608;13.260;2024-02-04T13:59:12;100904.00;;;8.50
71463;BMP180;59266;52.608;13.260;2024-02-04T14:01:49;100904.00;;;8.50
71463;BMP180;59266;52.608;13.260;2024-02-04T14:04:38;100906.00;;;8.50
71463;BMP180;59266;52.608;13.260;2024-02-04T14:07:11;100890.00;;;8.50
71463;BMP180;59266;52.608;13.260;2024-02-04T14:09:38;100892.00;;;8.60
71463;BMP180;59266;52.608;13.260;2024-02-04T14:12:05;100888.00;;;8.60